sensor_id;sensor_type;location;lat;lon;timestamp;P1;durP1;ratioP1;P2;durP2;ratioP2
58460;SDS011;45558;37.752;-97.822;2023-09-18T00:02:17;22.27;;;16.55;;
58460;SDS011;45558;37.752;-97.822;2023-09-18T00:04:42;27.73;;;16.15;;
58460;SDS011;45558;37.752;-97.822;2023-09-18T00:07:07;27.88;;;16.88;;
58460;SDS011;45558;37.752;-97.822;2023-09-18T00:09:33;23.48;;;17.23;;
58460;SDS011;45558;37.752;-97.822;2023-09-18T00:11:58;31.45;;;16.83;;
58460;SDS011;45558;37.752;-97.822;2023-09-18T00:14:23;26.83;;;18.23;;
58460;SDS011;45558;37.752;-97.822;2023-09-18T00:16:49;28.67;;;17.08;;
58460;SDS011;45558;37.752;-97.822;2023-09-18T00:19:16;24.90;;;17.33;;
58460;SDS011;45558;37.752;-97.822;2023-09-18T00:21:42;31.55;;;17.67;;
58460;SDS011;45558;37.752;-97.822;2023-09-18T00:24:07;27.23;;;16.75;;
58460;SDS011;45558;37.752;-97.822;2023-09-18T00:26:33;26.17;;;16.80;;
58460;SDS011;45558;37.752;-97.822;2023-09-18T00:28:59;24.58;;;16.02;;
58460;SDS011;45558;37.752;-97.822;2023-09-18T00:31:24;23.10;;;16.08;;
58460;SDS011;45558;37.752;-97.822;2023-09-18T00:33:49;26.00;;;17.95;;
58460;SDS011;45558;37.752;-97.822;2023-09-18T00:36:15;25.40;;;16.85;;
58460;SDS011;45558;37.752;-97.822;2023-09-18T00:38:40;23.23;;;16.67;;
58460;SDS011;45558;37.752;-97.822;2023-09-18T00:41:05;25.50;;;17.08;;
58460;SDS011;45558;37.752;-97.822;2023-09-18T00:43:31;21.55;;;14.40;;
58460;SDS011;45558;37.752;-97.822;2023-09-18T00:45:56;18.70;;;14.77;;
58460;SDS011;45558;37.752;-97.822;2023-09-18T00:48:22;22.33;;;14.50;;
58460;SDS011;45558;37.752;-97.822;2023-09-18T00:50:47;17.92;;;13.00;;
58460;SDS011;45558;37.752;-97.822;2023-09-18T00:53:14;28.80;;;13.40;;
58460;SDS011;45558;37.752;-97.822;2023-09-18T00:55:43;15.97;;;11.73;;
58460;SDS011;45558;37.752;-97.822;2023-09-18T00:58:08;17.35;;;12.32;;
58460;SDS011;45558;37.752;-97.822;2023-09-18T01:00:34;22.55;;;12.15;;
58460;SDS011;45558;37.752;-97.822;2023-09-18T01:03:00;16.85;;;11.68;;
58460;SDS011;45558;37.752;-97.822;2023-09-18T01:05:27;14.95;;;11.35;;
58460;SDS011;45558;37.752;-97.822;2023-09-18T01:07:52;17.17;;;11.80;;
58460;SDS011;45558;37.752;-97.822;2023-09-18T01:10:17;12.95;;;8.23;;
58460;SDS011;45558;37.752;-97.822;2023-09-18T01:15:18;8.55;;;6.78;;
58460;SDS011;45558;37.752;-97.822;2023-09-18T01:17:48;12.93;;;7.25;;
58460;SDS011;45558;37.752;-97.822;2023-09-18T01:20:13;11.32;;;6.95;;
58460;SDS011;45558;37.752;-97.822;2023-09-18T01:22:39;9.73;;;6.63;;
58460;SDS011;45558;37.752;-97.822;2023-09-18T01:25:05;9.23;;;6.97;;
58460;SDS011;45558;37.752;-97.822;2023-09-18T01:27:31;10.63;;;6.70;;
58460;SDS011;45558;37.752;-97.822;2023-09-18T01:29:57;12.57;;;6.70;;
58460;SDS011;45558;37.752;-97.822;2023-09-18T01:32:23;9.00;;;6.72;;
58460;SDS011;45558;37.752;-97.822;2023-09-18T01:34:52;9.75;;;6.22;;
58460;SDS011;45558;37.752;-97.822;2023-09-18T01:37:20;9.20;;;6.32;;
58460;SDS011;45558;37.752;-97.822;2023-09-18T01:39:47;9.25;;;6.28;;
58460;SDS011;45558;37.752;-97.822;2023-09-18T01:42:13;10.18;;;6.30;;
58460;SDS011;45558;37.752;-97.822;2023-09-18T01:44:39;8.32;;;6.07;;
58460;SDS011;45558;37.752;-97.822;2023-09-18T01:47:06;9.20;;;6.05;;
58460;SDS011;45558;37.752;-97.822;2023-09-18T01:49:33;9.32;;;5.15;;
58460;SDS011;45558;37.752;-97.822;2023-09-18T01:52:02;7.82;;;4.65;;
58460;SDS011;45558;37.752;-97.822;2023-09-18T01:54:29;7.72;;;4.82;;
58460;SDS011;45558;37.752;-97.822;2023-09-18T01:56:55;5.65;;;4.35;;
58460;SDS011;45558;37.752;-97.822;2023-09-18T01:59:20;6.05;;;3.97;;
58460;SDS011;45558;37.752;-97.822;2023-09-18T02:01:47;5.30;;;3.85;;
58460;SDS011;45558;37.752;-97.822;2023-09-18T02:04:12;4.85;;;3.28;;
58460;SDS011;45558;37.752;-97.822;2023-09-18T02:06:38;7.43;;;3.60;;
58460;SDS011;45558;37.752;-97.822;2023-09-18T02:09:04;4.38;;;3.55;;
58460;SDS011;45558;37.752;-97.822;2023-09-18T02:11:30;4.68;;;3.53;;
58460;SDS011;45558;37.752;-97.822;2023-09-18T02:13:55;5.70;;;3.70;;
58460;SDS011;45558;37.752;-97.822;2023-09-18T02:16:21;5.63;;;2.72;;
58460;SDS011;45558;37.752;-97.822;2023-09-18T02:18:49;5.78;;;2.85;;
58460;SDS011;45558;37.752;-97.822;2023-09-18T02:21:20;5.15;;;2.90;;
58460;SDS011;45558;37.752;-97.822;2023-09-18T02:23:50;3.97;;;2.35;;
58460;SDS011;45558;37.752;-97.822;2023-09-18T02:26:16;6.78;;;2.88;;
58460;SDS011;45558;37.752;-97.822;2023-09-18T02:28:44;5.25;;;2.83;;
58460;SDS011;45558;37.752;-97.822;2023-09-18T02:31:10;3.97;;;2.25;;
58460;SDS011;45558;37.752;-97.822;2023-09-18T02:33:36;2.83;;;1.73;;
58460;SDS011;45558;37.752;-97.822;2023-09-18T02:36:02;3.75;;;1.42;;
58460;SDS011;45558;37.752;-97.822;2023-09-18T02:38:28;2.70;;;1.38;;
58460;SDS011;45558;37.752;-97.822;2023-09-18T02:40:53;5.50;;;1.50;;
58460;SDS011;45558;37.752;-97.822;2023-09-18T02:43:19;3.58;;;1.20;;
58460;SDS011;45558;37.752;-97.822;2023-09-18T02:45:44;5.63;;;1.40;;
58460;SDS011;45558;37.752;-97.822;2023-09-18T02:48:11;5.80;;;1.00;;
58460;SDS011;45558;37.752;-97.822;2023-09-18T02:50:36;3.08;;;1.17;;
58460;SDS011;45558;37.752;-97.822;2023-09-18T02:53:02;2.40;;;1.17;;
58460;SDS011;45558;37.752;-97.822;2023-09-18T02:55:28;3.90;;;1.05;;
58460;SDS011;45558;37.752;-97.822;2023-09-18T02:57:53;2.85;;;1.10;;
58460;SDS011;45558;37.752;-97.822;2023-09-18T03:00:19;2.42;;;1.05;;
58460;SDS011;45558;37.752;-97.822;2023-09-18T03:02:44;3.95;;;1.30;;
58460;SDS011;45558;37.752;-97.822;2023-09-18T03:05:10;4.07;;;1.33;;
58460;SDS011;45558;37.752;-97.822;2023-09-18T03:07:35;5.43;;;1.35;;
58460;SDS011;45558;37.752;-97.822;2023-09-18T03:10:01;5.47;;;1.42;;
58460;SDS011;45558;37.752;-97.822;2023-09-18T03:12:27;3.60;;;1.25;;
58460;SDS011;45558;37.752;-97.822;2023-09-18T03:14:53;2.67;;;1.27;;
58460;SDS011;45558;37.752;-97.822;2023-09-18T03:17:18;3.25;;;0.95;;
58460;SDS011;45558;37.752;-97.822;2023-09-18T03:19:47;2.33;;;1.40;;
58460;SDS011;45558;37.752;-97.822;2023-09-18T03:22:13;6.97;;;1.70;;
58460;SDS011;45558;37.752;-97.822;2023-09-18T03:24:38;4.97;;;1.77;;
58460;SDS011;45558;37.752;-97.822;2023-09-18T03:27:04;4.20;;;1.65;;
58460;SDS011;45558;37.752;-97.822;2023-09-18T03:29:29;7.57;;;1.77;;
58460;SDS011;45558;37.752;-97.822;2023-09-18T03:31:55;11.05;;;1.48;;
58460;SDS011;45558;37.752;-97.822;2023-09-18T03:34:23;1.73;;;1.17;;
58460;SDS011;45558;37.752;-97.822;2023-09-18T03:36:51;8.85;;;1.92;;
58460;SDS011;45558;37.752;-97.822;2023-09-18T03:39:16;2.88;;;1.65;;
58460;SDS011;45558;37.752;-97.822;2023-09-18T03:41:42;3.08;;;1.40;;
58460;SDS011;45558;37.752;-97.822;2023-09-18T03:44:07;5.30;;;1.83;;
58460;SDS011;45558;37.752;-97.822;2023-09-18T03:46:34;6.28;;;1.60;;
58460;SDS011;45558;37.752;-97.822;2023-09-18T03:48:59;2.90;;;1.48;;
58460;SDS011;45558;37.752;-97.822;2023-09-18T03:51:24;8.18;;;1.25;;
58460;SDS011;45558;37.752;-97.822;2023-09-18T03:53:50;5.40;;;1.20;;
58460;SDS011;45558;37.752;-97.822;2023-09-18T03:56:16;3.65;;;1.33;;
58460;SDS011;45558;37.752;-97.822;2023-09-18T03:58:41;4.47;;;2.00;;
58460;SDS011;45558;37.752;-97.822;2023-09-18T04:01:07;5.13;;;1.58;;
58460;SDS011;45558;37.752;-97.822;2023-09-18T04:03:32;11.18;;;3.00;;
58460;SDS011;45558;37.752;-97.822;2023-09-18T04:05:59;7.15;;;1.27;;
58460;SDS011;45558;37.752;-97.822;2023-09-18T04:08:25;8.30;;;1.80;;
58460;SDS011;45558;37.752;-97.822;2023-09-18T04:10:51;4.22;;;1.35;;
58460;SDS011;45558;37.752;-97.822;2023-09-18T04:13:20;5.43;;;1.40;;
58460;SDS011;45558;37.752;-97.822;2023-09-18T04:15:46;6.20;;;1.13;;
58460;SDS011;45558;37.752;-97.822;2023-09-18T04:18:11;5.93;;;1.50;;
58460;SDS011;45558;37.752;-97.822;2023-09-18T04:20:36;6.50;;;1.10;;
58460;SDS011;45558;37.752;-97.822;2023-09-18T04:23:19;8.35;;;1.33;;
58460;SDS011;45558;37.752;-97.822;2023-09-18T04:25:46;4.22;;;1.23;;
58460;SDS011;45558;37.752;-97.822;2023-09-18T04:28:12;6.43;;;1.58;;
58460;SDS011;45558;37.752;-97.822;2023-09-18T04:30:39;3.95;;;1.20;;
58460;SDS011;45558;37.752;-97.822;2023-09-18T04:33:05;5.07;;;1.30;;
58460;SDS011;45558;37.752;-97.822;2023-09-18T04:35:30;5.80;;;1.40;;
58460;SDS011;45558;37.752;-97.822;2023-09-18T04:37:58;3.67;;;1.20;;
58460;SDS011;45558;37.752;-97.822;2023-09-18T04:40:24;8.13;;;1.45;;
58460;SDS011;45558;37.752;-97.822;2023-09-18T04:42:51;3.90;;;1.65;;
58460;SDS011;45558;37.752;-97.822;2023-09-18T04:45:17;4.18;;;1.20;;
58460;SDS011;45558;37.752;-97.822;2023-09-18T04:47:42;3.55;;;1.90;;
58460;SDS011;45558;37.752;-97.822;2023-09-18T04:50:08;3.35;;;1.50;;
58460;SDS011;45558;37.752;-97.822;2023-09-18T04:52:35;2.85;;;1.30;;
58460;SDS011;45558;37.752;-97.822;2023-09-18T04:57:31;6.55;;;0.90;;
58460;SDS011;45558;37.752;-97.822;2023-09-18T04:59:56;6.68;;;1.10;;
58460;SDS011;45558;37.752;-97.822;2023-09-18T05:02:22;2.72;;;0.93;;
58460;SDS011;45558;37.752;-97.822;2023-09-18T05:04:47;5.45;;;1.10;;
58460;SDS011;45558;37.752;-97.822;2023-09-18T05:07:12;5.60;;;1.45;;
58460;SDS011;45558;37.752;-97.822;2023-09-18T05:09:38;4.90;;;1.02;;
58460;SDS011;45558;37.752;-97.822;2023-09-18T05:12:05;3.53;;;1.10;;
58460;SDS011;45558;37.752;-97.822;2023-09-18T05:14:33;4.72;;;1.30;;
58460;SDS011;45558;37.752;-97.822;2023-09-18T05:16:59;8.05;;;0.90;;
58460;SDS011;45558;37.752;-97.822;2023-09-18T05:19:25;7.97;;;1.20;;
58460;SDS011;45558;37.752;-97.822;2023-09-18T05:21:50;4.93;;;0.90;;
58460;SDS011;45558;37.752;-97.822;2023-09-18T05:24:15;2.35;;;0.77;;
58460;SDS011;45558;37.752;-97.822;2023-09-18T05:26:41;4.05;;;1.05;;
58460;SDS011;45558;37.752;-97.822;2023-09-18T05:29:06;4.38;;;0.77;;
58460;SDS011;45558;37.752;-97.822;2023-09-18T05:31:32;3.92;;;0.93;;
58460;SDS011;45558;37.752;-97.822;2023-09-18T05:33:57;5.72;;;0.80;;
58460;SDS011;45558;37.752;-97.822;2023-09-18T05:36:23;6.35;;;0.88;;
58460;SDS011;45558;37.752;-97.822;2023-09-18T05:38:49;2.60;;;0.77;;
58460;SDS011;45558;37.752;-97.822;2023-09-18T05:41:14;3.20;;;0.85;;
58460;SDS011;45558;37.752;-97.822;2023-09-18T05:43:40;2.40;;;0.52;;
58460;SDS011;45558;37.752;-97.822;2023-09-18T05:46:05;4.07;;;0.95;;
58460;SDS011;45558;37.752;-97.822;2023-09-18T05:48:31;5.40;;;0.40;;
58460;SDS011;45558;37.752;-97.822;2023-09-18T05:50:57;3.50;;;0.40;;
58460;SDS011;45558;37.752;-97.822;2023-09-18T05:53:22;4.07;;;0.63;;
58460;SDS011;45558;37.752;-97.822;2023-09-18T05:55:48;4.80;;;0.43;;
58460;SDS011;45558;37.752;-97.822;2023-09-18T05:58:13;6.72;;;0.70;;
58460;SDS011;45558;37.752;-97.822;2023-09-18T06:00:39;5.15;;;0.75;;
58460;SDS011;45558;37.752;-97.822;2023-09-18T06:03:04;5.00;;;0.75;;
58460;SDS011;45558;37.752;-97.822;2023-09-18T06:05:31;4.35;;;0.85;;
58460;SDS011;45558;37.752;-97.822;2023-09-18T06:07:57;5.90;;;0.60;;
58460;SDS011;45558;37.752;-97.822;2023-09-18T06:10:22;4.18;;;0.70;;
58460;SDS011;45558;37.752;-97.822;2023-09-18T06:12:47;4.20;;;0.93;;
58460;SDS011;45558;37.752;-97.822;2023-09-18T06:15:13;6.00;;;0.90;;
58460;SDS011;45558;37.752;-97.822;2023-09-18T06:17:40;5.43;;;0.90;;
58460;SDS011;45558;37.752;-97.822;2023-09-18T06:20:10;3.50;;;0.80;;
58460;SDS011;45558;37.752;-97.822;2023-09-18T06:22:37;7.55;;;0.85;;
58460;SDS011;45558;37.752;-97.822;2023-09-18T06:25:04;4.28;;;0.95;;
58460;SDS011;45558;37.752;-97.822;2023-09-18T06:27:30;7.82;;;1.10;;
58460;SDS011;45558;37.752;-97.822;2023-09-18T06:29:57;7.78;;;0.80;;
58460;SDS011;45558;37.752;-97.822;2023-09-18T06:32:22;6.13;;;1.05;;
58460;SDS011;45558;37.752;-97.822;2023-09-18T06:34:48;4.35;;;0.75;;
58460;SDS011;45558;37.752;-97.822;2023-09-18T06:37:13;4.10;;;0.80;;
58460;SDS011;45558;37.752;-97.822;2023-09-18T06:39:39;9.00;;;1.23;;
58460;SDS011;45558;37.752;-97.822;2023-09-18T06:42:04;11.27;;;1.33;;
58460;SDS011;45558;37.752;-97.822;2023-09-18T06:44:30;11.15;;;1.33;;
58460;SDS011;45558;37.752;-97.822;2023-09-18T06:46:56;7.82;;;0.90;;
58460;SDS011;45558;37.752;-97.822;2023-09-18T06:49:21;16.65;;;1.65;;
58460;SDS011;45558;37.752;-97.822;2023-09-18T06:51:47;8.90;;;1.13;;
58460;SDS011;45558;37.752;-97.822;2023-09-18T06:54:13;5.03;;;1.00;;
58460;SDS011;45558;37.752;-97.822;2023-09-18T06:56:38;11.82;;;1.42;;
58460;SDS011;45558;37.752;-97.822;2023-09-18T06:59:03;4.22;;;1.13;;
58460;SDS011;45558;37.752;-97.822;2023-09-18T07:01:29;8.68;;;1.00;;
58460;SDS011;45558;37.752;-97.822;2023-09-18T07:03:56;8.43;;;1.00;;
58460;SDS011;45558;37.752;-97.822;2023-09-18T07:06:22;7.75;;;1.02;;
58460;SDS011;45558;37.752;-97.822;2023-09-18T07:08:48;6.00;;;0.75;;
58460;SDS011;45558;37.752;-97.822;2023-09-18T07:11:14;4.72;;;1.15;;
58460;SDS011;45558;37.752;-97.822;2023-09-18T07:13:40;4.32;;;0.93;;
58460;SDS011;45558;37.752;-97.822;2023-09-18T07:16:06;7.35;;;0.98;;
58460;SDS011;45558;37.752;-97.822;2023-09-18T07:18:31;5.43;;;1.05;;
58460;SDS011;45558;37.752;-97.822;2023-09-18T07:20:57;8.43;;;0.90;;
58460;SDS011;45558;37.752;-97.822;2023-09-18T07:23:22;9.30;;;1.02;;
58460;SDS011;45558;37.752;-97.822;2023-09-18T07:25:48;11.50;;;1.63;;
58460;SDS011;45558;37.752;-97.822;2023-09-18T07:28:13;10.45;;;1.23;;
58460;SDS011;45558;37.752;-97.822;2023-09-18T07:30:42;8.75;;;0.93;;
58460;SDS011;45558;37.752;-97.822;2023-09-18T07:33:11;9.23;;;1.92;;
58460;SDS011;45558;37.752;-97.822;2023-09-18T07:35:37;7.97;;;2.47;;
58460;SDS011;45558;37.752;-97.822;2023-09-18T07:38:03;11.80;;;2.33;;
58460;SDS011;45558;37.752;-97.822;2023-09-18T07:40:28;9.45;;;1.73;;
58460;SDS011;45558;37.752;-97.822;2023-09-18T07:42:54;11.43;;;1.45;;
58460;SDS011;45558;37.752;-97.822;2023-09-18T07:45:19;7.43;;;0.80;;
58460;SDS011;45558;37.752;-97.822;2023-09-18T07:47:45;14.18;;;1.63;;
58460;SDS011;45558;37.752;-97.822;2023-09-18T07:50:10;12.55;;;1.20;;
58460;SDS011;45558;37.752;-97.822;2023-09-18T07:52:36;12.88;;;2.17;;
58460;SDS011;45558;37.752;-97.822;2023-09-18T07:55:01;14.60;;;1.75;;
58460;SDS011;45558;37.752;-97.822;2023-09-18T07:57:27;11.48;;;1.25;;
58460;SDS011;45558;37.752;-97.822;2023-09-18T07:59:57;6.23;;;1.37;;
58460;SDS011;45558;37.752;-97.822;2023-09-18T08:02:23;10.25;;;2.17;;
58460;SDS011;45558;37.752;-97.822;2023-09-18T08:04:50;23.48;;;1.85;;
58460;SDS011;45558;37.752;-97.822;2023-09-18T08:07:17;10.55;;;2.33;;
58460;SDS011;45558;37.752;-97.822;2023-09-18T08:09:44;17.40;;;2.13;;
58460;SDS011;45558;37.752;-97.822;2023-09-18T08:12:09;12.30;;;2.53;;
58460;SDS011;45558;37.752;-97.822;2023-09-18T08:14:34;17.45;;;2.03;;
58460;SDS011;45558;37.752;-97.822;2023-09-18T08:17:01;12.88;;;1.77;;
58460;SDS011;45558;37.752;-97.822;2023-09-18T08:19:29;10.63;;;1.70;;
58460;SDS011;45558;37.752;-97.822;2023-09-18T08:21:56;12.25;;;1.70;;
58460;SDS011;45558;37.752;-97.822;2023-09-18T08:24:22;20.25;;;2.17;;
58460;SDS011;45558;37.752;-97.822;2023-09-18T08:26:48;16.90;;;2.00;;
58460;SDS011;45558;37.752;-97.822;2023-09-18T08:29:13;22.65;;;2.35;;
58460;SDS011;45558;37.752;-97.822;2023-09-18T08:31:39;16.55;;;2.47;;
58460;SDS011;45558;37.752;-97.822;2023-09-18T08:34:04;17.45;;;2.45;;
58460;SDS011;45558;37.752;-97.822;2023-09-18T08:36:29;15.60;;;1.90;;
58460;SDS011;45558;37.752;-97.822;2023-09-18T08:38:55;14.25;;;1.90;;
58460;SDS011;45558;37.752;-97.822;2023-09-18T08:41:21;11.55;;;1.40;;
58460;SDS011;45558;37.752;-97.822;2023-09-18T08:43:47;10.48;;;1.50;;
58460;SDS011;45558;37.752;-97.822;2023-09-18T08:46:13;14.60;;;1.50;;
58460;SDS011;45558;37.752;-97.822;2023-09-18T08:48:39;17.77;;;2.28;;
58460;SDS011;45558;37.752;-97.822;2023-09-18T08:51:05;17.13;;;2.67;;
58460;SDS011;45558;37.752;-97.822;2023-09-18T08:53:32;11.52;;;1.70;;
58460;SDS011;45558;37.752;-97.822;2023-09-18T08:55:58;15.88;;;3.90;;
58460;SDS011;45558;37.752;-97.822;2023-09-18T08:58:27;17.55;;;2.35;;
58460;SDS011;45558;37.752;-97.822;2023-09-18T09:00:53;9.13;;;1.70;;
58460;SDS011;45558;37.752;-97.822;2023-09-18T09:03:18;11.00;;;1.77;;
58460;SDS011;45558;37.752;-97.822;2023-09-18T09:05:45;11.90;;;1.88;;
58460;SDS011;45558;37.752;-97.822;2023-09-18T09:08:10;14.05;;;2.10;;
58460;SDS011;45558;37.752;-97.822;2023-09-18T09:10:36;17.90;;;2.25;;
58460;SDS011;45558;37.752;-97.822;2023-09-18T09:13:01;16.50;;;2.42;;
58460;SDS011;45558;37.752;-97.822;2023-09-18T09:15:43;19.23;;;2.13;;
58460;SDS011;45558;37.752;-97.822;2023-09-18T09:18:14;12.88;;;2.05;;
58460;SDS011;45558;37.752;-97.822;2023-09-18T09:20:40;18.15;;;2.97;;
58460;SDS011;45558;37.752;-97.822;2023-09-18T09:23:08;8.32;;;1.15;;
58460;SDS011;45558;37.752;-97.822;2023-09-18T09:25:34;17.80;;;2.30;;
58460;SDS011;45558;37.752;-97.822;2023-09-18T09:28:01;8.93;;;1.60;;
58460;SDS011;45558;37.752;-97.822;2023-09-18T09:30:31;11.95;;;2.03;;
58460;SDS011;45558;37.752;-97.822;2023-09-18T09:32:58;9.63;;;1.65;;
58460;SDS011;45558;37.752;-97.822;2023-09-18T09:35:28;9.73;;;1.50;;
58460;SDS011;45558;37.752;-97.822;2023-09-18T09:40:38;12.70;;;1.70;;
58460;SDS011;45558;37.752;-97.822;2023-09-18T09:43:04;12.70;;;1.30;;
58460;SDS011;45558;37.752;-97.822;2023-09-18T09:45:33;12.38;;;1.73;;
58460;SDS011;45558;37.752;-97.822;2023-09-18T09:48:02;12.55;;;1.58;;
58460;SDS011;45558;37.752;-97.822;2023-09-18T09:50:29;15.73;;;1.50;;
58460;SDS011;45558;37.752;-97.822;2023-09-18T09:52:55;8.40;;;1.63;;
58460;SDS011;45558;37.752;-97.822;2023-09-18T09:55:28;10.98;;;1.73;;
58460;SDS011;45558;37.752;-97.822;2023-09-18T09:57:59;8.45;;;1.75;;
58460;SDS011;45558;37.752;-97.822;2023-09-18T10:00:29;9.48;;;1.40;;
58460;SDS011;45558;37.752;-97.822;2023-09-18T10:03:06;7.23;;;1.33;;
58460;SDS011;45558;37.752;-97.822;2023-09-18T10:05:34;7.93;;;1.48;;
58460;SDS011;45558;37.752;-97.822;2023-09-18T10:08:02;6.88;;;1.35;;
58460;SDS011;45558;37.752;-97.822;2023-09-18T10:10:39;9.80;;;1.48;;
58460;SDS011;45558;37.752;-97.822;2023-09-18T10:13:18;9.23;;;1.08;;
58460;SDS011;45558;37.752;-97.822;2023-09-18T10:15:50;9.05;;;1.45;;
58460;SDS011;45558;37.752;-97.822;2023-09-18T10:18:22;10.25;;;1.30;;
58460;SDS011;45558;37.752;-97.822;2023-09-18T10:20:57;8.60;;;1.58;;
58460;SDS011;45558;37.752;-97.822;2023-09-18T10:26:29;10.05;;;1.63;;
58460;SDS011;45558;37.752;-97.822;2023-09-18T10:28:58;8.93;;;1.50;;
58460;SDS011;45558;37.752;-97.822;2023-09-18T10:31:28;9.38;;;1.38;;
58460;SDS011;45558;37.752;-97.822;2023-09-18T10:33:54;7.53;;;1.20;;
58460;SDS011;45558;37.752;-97.822;2023-09-18T10:36:21;8.50;;;1.88;;
58460;SDS011;45558;37.752;-97.822;2023-09-18T10:38:48;9.10;;;1.73;;
58460;SDS011;45558;37.752;-97.822;2023-09-18T10:41:16;6.05;;;0.73;;
58460;SDS011;45558;37.752;-97.822;2023-09-18T10:43:45;5.78;;;1.38;;
58460;SDS011;45558;37.752;-97.822;2023-09-18T10:46:12;8.35;;;1.30;;
58460;SDS011;45558;37.752;-97.822;2023-09-18T10:48:39;11.35;;;1.30;;
58460;SDS011;45558;37.752;-97.822;2023-09-18T10:51:06;9.30;;;1.10;;
58460;SDS011;45558;37.752;-97.822;2023-09-18T10:53:31;17.10;;;1.52;;
58460;SDS011;45558;37.752;-97.822;2023-09-18T10:55:57;12.35;;;1.35;;
58460;SDS011;45558;37.752;-97.822;2023-09-18T10:58:23;7.25;;;1.05;;
58460;SDS011;45558;37.752;-97.822;2023-09-18T11:00:50;5.30;;;0.80;;
58460;SDS011;45558;37.752;-97.822;2023-09-18T11:03:16;10.52;;;1.25;;
58460;SDS011;45558;37.752;-97.822;2023-09-18T11:05:46;9.32;;;1.02;;
58460;SDS011;45558;37.752;-97.822;2023-09-18T11:08:25;4.30;;;0.70;;
58460;SDS011;45558;37.752;-97.822;2023-09-18T11:11:01;3.08;;;0.82;;
58460;SDS011;45558;37.752;-97.822;2023-09-18T11:16:15;7.72;;;1.17;;
58460;SDS011;45558;37.752;-97.822;2023-09-18T11:18:45;9.80;;;0.95;;
58460;SDS011;45558;37.752;-97.822;2023-09-18T11:21:15;7.55;;;1.63;;
58460;SDS011;45558;37.752;-97.822;2023-09-18T11:23:43;7.53;;;1.20;;
58460;SDS011;45558;37.752;-97.822;2023-09-18T11:26:11;9.25;;;1.42;;
58460;SDS011;45558;37.752;-97.822;2023-09-18T11:28:40;10.13;;;1.30;;
58460;SDS011;45558;37.752;-97.822;2023-09-18T11:31:07;9.90;;;1.23;;
58460;SDS011;45558;37.752;-97.822;2023-09-18T11:36:12;6.13;;;1.20;;
58460;SDS011;45558;37.752;-97.822;2023-09-18T11:39:05;6.32;;;1.30;;
58460;SDS011;45558;37.752;-97.822;2023-09-18T11:41:34;6.88;;;1.10;;
58460;SDS011;45558;37.752;-97.822;2023-09-18T11:46:38;5.93;;;1.25;;
58460;SDS011;45558;37.752;-97.822;2023-09-18T11:49:09;6.50;;;0.98;;
58460;SDS011;45558;37.752;-97.822;2023-09-18T11:51:36;9.65;;;1.40;;
58460;SDS011;45558;37.752;-97.822;2023-09-18T11:54:02;4.88;;;1.70;;
58460;SDS011;45558;37.752;-97.822;2023-09-18T11:56:34;5.30;;;1.25;;
58460;SDS011;45558;37.752;-97.822;2023-09-18T11:59:00;4.13;;;0.70;;
58460;SDS011;45558;37.752;-97.822;2023-09-18T12:01:30;5.90;;;0.98;;
58460;SDS011;45558;37.752;-97.822;2023-09-18T12:04:02;4.88;;;0.80;;
58460;SDS011;45558;37.752;-97.822;2023-09-18T12:06:35;7.32;;;1.92;;
58460;SDS011;45558;37.752;-97.822;2023-09-18T12:09:03;6.47;;;1.25;;
58460;SDS011;45558;37.752;-97.822;2023-09-18T12:11:29;4.30;;;0.80;;
58460;SDS011;45558;37.752;-97.822;2023-09-18T12:13:56;7.13;;;1.02;;
58460;SDS011;45558;37.752;-97.822;2023-09-18T12:16:23;5.65;;;1.08;;
58460;SDS011;45558;37.752;-97.822;2023-09-18T12:18:50;8.02;;;1.58;;
58460;SDS011;45558;37.752;-97.822;2023-09-18T12:21:16;5.70;;;0.82;;
58460;SDS011;45558;37.752;-97.822;2023-09-18T12:23:43;5.72;;;1.55;;
58460;SDS011;45558;37.752;-97.822;2023-09-18T12:26:10;3.08;;;0.63;;
58460;SDS011;45558;37.752;-97.822;2023-09-18T12:28:40;6.93;;;0.95;;
58460;SDS011;45558;37.752;-97.822;2023-09-18T12:31:13;3.50;;;0.90;;
58460;SDS011;45558;37.752;-97.822;2023-09-18T12:33:39;6.72;;;1.10;;
58460;SDS011;45558;37.752;-97.822;2023-09-18T12:36:06;6.00;;;1.30;;
58460;SDS011;45558;37.752;-97.822;2023-09-18T12:38:33;5.82;;;1.48;;
58460;SDS011;45558;37.752;-97.822;2023-09-18T12:40:59;4.75;;;0.80;;
58460;SDS011;45558;37.752;-97.822;2023-09-18T12:43:38;4.10;;;0.73;;
58460;SDS011;45558;37.752;-97.822;2023-09-18T12:48:30;4.38;;;1.15;;
58460;SDS011;45558;37.752;-97.822;2023-09-18T12:51:01;5.80;;;0.80;;
58460;SDS011;45558;37.752;-97.822;2023-09-18T12:53:28;3.55;;;0.85;;
58460;SDS011;45558;37.752;-97.822;2023-09-18T12:55:54;4.63;;;0.60;;
58460;SDS011;45558;37.752;-97.822;2023-09-18T12:58:19;7.43;;;1.08;;
58460;SDS011;45558;37.752;-97.822;2023-09-18T13:00:46;6.53;;;1.30;;
58460;SDS011;45558;37.752;-97.822;2023-09-18T13:03:13;5.63;;;0.82;;
58460;SDS011;45558;37.752;-97.822;2023-09-18T13:05:38;3.35;;;0.90;;
58460;SDS011;45558;37.752;-97.822;2023-09-18T13:08:04;8.68;;;1.15;;
58460;SDS011;45558;37.752;-97.822;2023-09-18T13:10:46;5.25;;;1.35;;
58460;SDS011;45558;37.752;-97.822;2023-09-18T13:13:18;5.43;;;0.75;;
58460;SDS011;45558;37.752;-97.822;2023-09-18T13:15:45;2.63;;;0.82;;
58460;SDS011;45558;37.752;-97.822;2023-09-18T13:18:12;8.35;;;1.65;;
58460;SDS011;45558;37.752;-97.822;2023-09-18T13:20:39;5.80;;;1.15;;
58460;SDS011;45558;37.752;-97.822;2023-09-18T13:23:07;8.07;;;0.88;;
58460;SDS011;45558;37.752;-97.822;2023-09-18T13:25:36;6.70;;;1.02;;
58460;SDS011;45558;37.752;-97.822;2023-09-18T13:28:08;5.47;;;0.98;;
58460;SDS011;45558;37.752;-97.822;2023-09-18T13:30:35;7.55;;;1.52;;
58460;SDS011;45558;37.752;-97.822;2023-09-18T13:33:07;9.95;;;1.42;;
58460;SDS011;45558;37.752;-97.822;2023-09-18T13:35:34;4.20;;;1.10;;
58460;SDS011;45558;37.752;-97.822;2023-09-18T13:38:00;9.20;;;1.25;;
58460;SDS011;45558;37.752;-97.822;2023-09-18T13:40:29;8.23;;;0.80;;
58460;SDS011;45558;37.752;-97.822;2023-09-18T13:42:54;7.88;;;1.23;;
58460;SDS011;45558;37.752;-97.822;2023-09-18T13:45:20;8.57;;;1.40;;
58460;SDS011;45558;37.752;-97.822;2023-09-18T13:47:45;5.22;;;0.98;;
58460;SDS011;45558;37.752;-97.822;2023-09-18T13:50:14;8.65;;;1.13;;
58460;SDS011;45558;37.752;-97.822;2023-09-18T13:52:40;9.77;;;1.25;;
58460;SDS011;45558;37.752;-97.822;2023-09-18T13:55:05;5.28;;;1.02;;
58460;SDS011;45558;37.752;-97.822;2023-09-18T13:57:34;7.90;;;1.25;;
58460;SDS011;45558;37.752;-97.822;2023-09-18T14:00:03;6.57;;;1.10;;
58460;SDS011;45558;37.752;-97.822;2023-09-18T14:02:36;9.25;;;1.65;;
58460;SDS011;45558;37.752;-97.822;2023-09-18T14:05:07;4.10;;;1.33;;
58460;SDS011;45558;37.752;-97.822;2023-09-18T14:07:34;8.73;;;1.52;;
58460;SDS011;45558;37.752;-97.822;2023-09-18T14:09:59;9.32;;;1.30;;
58460;SDS011;45558;37.752;-97.822;2023-09-18T14:12:28;6.00;;;1.35;;
58460;SDS011;45558;37.752;-97.822;2023-09-18T14:14:55;9.55;;;1.73;;
58460;SDS011;45558;37.752;-97.822;2023-09-18T14:17:20;9.55;;;1.80;;
58460;SDS011;45558;37.752;-97.822;2023-09-18T14:19:46;5.25;;;1.23;;
58460;SDS011;45558;37.752;-97.822;2023-09-18T14:22:12;6.95;;;1.23;;
58460;SDS011;45558;37.752;-97.822;2023-09-18T14:24:39;9.38;;;1.35;;
58460;SDS011;45558;37.752;-97.822;2023-09-18T14:27:05;6.20;;;1.10;;
58460;SDS011;45558;37.752;-97.822;2023-09-18T14:29:31;5.18;;;1.40;;
58460;SDS011;45558;37.752;-97.822;2023-09-18T14:31:57;5.07;;;1.00;;
58460;SDS011;45558;37.752;-97.822;2023-09-18T14:34:22;4.35;;;0.93;;
58460;SDS011;45558;37.752;-97.822;2023-09-18T14:36:48;5.13;;;1.05;;